sensor_id;sensor_type;location;lat;lon;timestamp;pressure;altitude;pressure_sealevel;temperature;humidity
3250;BME280;1637;42.020;23.992;2023-01-28T00:01:55;91816.34;;;2.62;100.00
3250;BME280;1637;42.020;23.992;2023-01-28T00:04:22;91812.22;;;2.68;100.00
3250;BME280;1637;42.020;23.992;2023-01-28T00:06:49;91819.75;;;2.66;100.00
3250;BME280;1637;42.020;23.992;2023-01-28T00:09:15;91814.50;;;3.01;100.00
3250;BME280;1637;42.020;23.992;2023-01-28T00:11:42;91818.63;;;2.92;100.00
3250;BME280;1637;42.020;23.992;2023-01-28T00:14:11;91816.00;;;2.88;100.00
3250;BME280;1637;42.020;23.992;2023-01-28T00:16:38;91830.38;;;3.05;100.00
3250;BME280;1637;42.020;23.992;2023-01-28T00:19:05;91823.94;;;2.92;100.00
3250;BME280;1637;42.020;23.992;2023-01-28T00:21:32;91831.09;;;2.70;100.00
3250;BME280;1637;42.020;23.992;2023-01-28T00:23:59;91826.97;;;2.94;100.00
3250;BME280;1637;42.020;23.992;2023-01-28T00:26:25;91827.38;;;3.10;100.00
3250;BME280;1637;42.020;23.992;2023-01-28T00:28:52;91830.38;;;3.12;100.00
3250;BME280;1637;42.020;23.992;2023-01-28T00:31:22;91828.50;;;3.09;100.00
3250;BME280;1637;42.020;23.992;2023-01-28T00:33:50;91837.97;;;3.10;100.00
3250;BME280;1637;42.020;23.992;2023-01-28T00:36:18;91834.53;;;3.20;100.00
3250;BME280;1637;42.020;23.992;2023-01-28T00:38:48;91845.88;;;3.10;100.00
3250;BME280;1637;42.020;23.992;2023-01-28T00:41:17;91844.38;;;3.05;100.00
3250;BME280;1637;42.020;23.992;2023-01-28T00:43:46;91844.00;;;3.03;100.00
3250;BME280;1637;42.020;23.992;2023-01-28T00:46:13;91845.13;;;3.06;100.00
3250;BME280;1637;42.020;23.992;2023-01-28T00:48:42;91847.00;;;3.13;100.00
3250;BME280;1637;42.020;23.992;2023-01-28T00:51:11;91849.69;;;3.30;100.00
3250;BME280;1637;42.020;23.992;2023-01-28T00:53:38;91845.88;;;3.10;100.00
3250;BME280;1637;42.020;23.992;2023-01-28T00:56:07;91829.63;;;3.04;100.00
3250;BME280;1637;42.020;23.992;2023-01-28T00:58:34;91855.72;;;3.27;100.00
3250;BME280;1637;42.020;23.992;2023-01-28T01:01:06;91858.34;;;3.13;100.00
3250;BME280;1637;42.020;23.992;2023-01-28T01:03:33;91850.75;;;2.83;100.00
3250;BME280;1637;42.020;23.992;2023-01-28T01:06:01;91860.19;;;2.77;100.00
3250;BME280;1637;42.020;23.992;2023-01-28T01:08:28;91860.59;;;2.86;100.00
3250;BME280;1637;42.020;23.992;2023-01-28T01:10:59;91837.47;;;2.48;100.00
3250;BME280;1637;42.020;23.992;2023-01-28T01:13:26;91858.22;;;2.49;100.00
3250;BME280;1637;42.020;23.992;2023-01-28T01:16:00;91853.34;;;2.58;100.00
3250;BME280;1637;42.020;23.992;2023-01-28T01:18:27;91866.94;;;2.60;100.00
3250;BME280;1637;42.020;23.992;2023-01-28T01:20:54;91863.94;;;2.65;100.00
3250;BME280;1637;42.020;23.992;2023-01-28T01:23:25;91876.34;;;2.54;100.00
3250;BME280;1637;42.020;23.992;2023-01-28T01:25:52;91866.19;;;2.60;100.00
3250;BME280;1637;42.020;23.992;2023-01-28T01:28:20;91847.66;;;2.53;100.00
3250;BME280;1637;42.020;23.992;2023-01-28T01:30:47;91868.03;;;2.56;100.00
3250;BME280;1637;42.020;23.992;2023-01-28T01:33:15;91872.16;;;2.50;100.00
3250;BME280;1637;42.020;23.992;2023-01-28T01:35:42;91865.06;;;2.64;100.00
3250;BME280;1637;42.020;23.992;2023-01-28T01:38:09;91866.22;;;2.78;100.00
3250;BME280;1637;42.020;23.992;2023-01-28T01:40:37;91862.81;;;2.66;100.00
3250;BME280;1637;42.020;23.992;2023-01-28T01:43:14;91869.09;;;2.33;100.00
3250;BME280;1637;42.020;23.992;2023-01-28T01:45:42;91861.97;;;2.45;100.00
3250;BME280;1637;42.020;23.992;2023-01-28T01:48:14;91868.53;;;2.97;100.00
3250;BME280;1637;42.020;23.992;2023-01-28T01:50:48;91870.38;;;2.68;100.00
3250;BME280;1637;42.020;23.992;2023-01-28T01:53:19;91865.91;;;3.04;100.00
3250;BME280;1637;42.020;23.992;2023-01-28T01:55:51;91864.03;;;3.08;100.00
3250;BME280;1637;42.020;23.992;2023-01-28T01:58:23;91865.91;;;3.15;100.00
3250;BME280;1637;42.020;23.992;2023-01-28T02:00:51;91840.59;;;3.03;100.00
3250;BME280;1637;42.020;23.992;2023-01-28T02:03:22;91868.19;;;3.20;100.00
3250;BME280;1637;42.020;23.992;2023-01-28T02:05:51;91879.13;;;2.90;100.00
3250;BME280;1637;42.020;23.992;2023-01-28T02:08:18;91882.84;;;2.82;100.00
3250;BME280;1637;42.020;23.992;2023-01-28T02:10:51;91896.03;;;2.67;100.00
3250;BME280;1637;42.020;23.992;2023-01-28T02:13:22;91880.19;;;2.78;100.00
3250;BME280;1637;42.020;23.992;2023-01-28T02:15:50;91879.06;;;2.75;100.00
3250;BME280;1637;42.020;23.992;2023-01-28T02:18:17;91854.44;;;2.54;100.00
3250;BME280;1637;42.020;23.992;2023-01-28T02:24:09;91884.34;;;2.79;100.00
3250;BME280;1637;42.020;23.992;2023-01-28T02:26:56;91888.06;;;2.57;100.00
3250;BME280;1637;42.020;23.992;2023-01-28T02:29:33;91898.28;;;2.62;100.00
3250;BME280;1637;42.020;23.992;2023-01-28T02:32:06;91896.00;;;2.60;100.00
3250;BME280;1637;42.020;23.992;2023-01-28T02:34:39;91906.94;;;2.48;100.00
3250;BME280;1637;42.020;23.992;2023-01-28T02:37:13;91902.34;;;2.38;100.00
3250;BME280;1637;42.020;23.992;2023-01-28T02:39:43;91854.34;;;2.29;100.00
3250;BME280;1637;42.020;23.992;2023-01-28T02:42:14;91906.94;;;2.55;100.00
3250;BME280;1637;42.020;23.992;2023-01-28T02:44:45;91909.06;;;2.21;100.00
3250;BME280;1637;42.020;23.992;2023-01-28T02:47:13;91917.00;;;2.25;100.00
3250;BME280;1637;42.020;23.992;2023-01-28T02:50:00;91920.09;;;2.41;100.00
3250;BME280;1637;42.020;23.992;2023-01-28T02:52:48;91918.22;;;2.41;100.00
3250;BME280;1637;42.020;23.992;2023-01-28T02:55:38;91906.72;;;2.09;100.00
3250;BME280;1637;42.020;23.992;2023-01-28T02:58:12;91910.81;;;1.99;100.00
3250;BME280;1637;42.020;23.992;2023-01-28T03:00:49;91911.72;;;2.25;100.00
3250;BME280;1637;42.020;23.992;2023-01-28T03:03:22;91911.28;;;2.16;100.00
3250;BME280;1637;42.020;23.992;2023-01-28T03:05:54;91913.97;;;2.23;100.00
3250;BME280;1637;42.020;23.992;2023-01-28T03:08:37;91908.19;;;2.03;100.00
3250;BME280;1637;42.020;23.992;2023-01-28T03:11:22;91918.97;;;2.42;100.00
3250;BME280;1637;42.020;23.992;2023-01-28T03:14:08;91913.28;;;2.36;100.00
3250;BME280;1637;42.020;23.992;2023-01-28T03:16:56;91923.53;;;2.52;100.00
3250;BME280;1637;42.020;23.992;2023-01-28T03:19:42;91922.31;;;2.35;98.87
3250;BME280;1637;42.020;23.992;2023-01-28T03:22:28;91919.53;;;2.03;100.00
3250;BME280;1637;42.020;23.992;2023-01-28T03:25:16;91928.38;;;2.36;100.00
3250;BME280;1637;42.020;23.992;2023-01-28T03:28:03;91932.84;;;2.25;100.00
3250;BME280;1637;42.020;23.992;2023-01-28T03:30:53;91938.38;;;2.02;100.00
3250;BME280;1637;42.020;23.992;2023-01-28T03:33:42;91934.69;;;2.17;97.50
3250;BME280;1637;42.020;23.992;2023-01-28T03:36:28;91937.34;;;2.17;96.95
3250;BME280;1637;42.020;23.992;2023-01-28T03:39:14;91936.91;;;2.12;93.71
3250;BME280;1637;42.020;23.992;2023-01-28T03:41:41;91939.91;;;2.10;94.36
3250;BME280;1637;42.020;23.992;2023-01-28T03:44:08;91936.88;;;2.08;91.66
3250;BME280;1637;42.020;23.992;2023-01-28T03:46:52;91941.22;;;2.37;91.55
3250;BME280;1637;42.020;23.992;2023-01-28T03:49:20;91931.97;;;2.03;91.12
3250;BME280;1637;42.020;23.992;2023-01-28T03:51:47;91941.91;;;2.24;92.61
3250;BME280;1637;42.020;23.992;2023-01-28T03:54:14;91953.88;;;2.11;91.64
3250;BME280;1637;42.020;23.992;2023-01-28T03:56:41;91958.34;;;1.99;93.35
3250;BME280;1637;42.020;23.992;2023-01-28T03:59:07;91953.50;;;2.08;94.12
3250;BME280;1637;42.020;23.992;2023-01-28T04:01:34;91961.53;;;2.26;93.18
3250;BME280;1637;42.020;23.992;2023-01-28T04:04:01;91958.56;;;2.35;93.93
3250;BME280;1637;42.020;23.992;2023-01-28T04:06:29;91964.81;;;2.09;91.34
3250;BME280;1637;42.020;23.992;2023-01-28T04:08:56;91967.44;;;2.05;92.48
3250;BME280;1637;42.020;23.992;2023-01-28T04:11:24;91967.19;;;1.70;91.93
3250;BME280;1637;42.020;23.992;2023-01-28T04:13:51;91970.63;;;1.78;91.58
3250;BME280;1637;42.020;23.992;2023-01-28T04:16:18;91972.84;;;1.72;93.86
3250;BME280;1637;42.020;23.992;2023-01-28T04:18:46;91978.75;;;1.55;94.50
3250;BME280;1637;42.020;23.992;2023-01-28T04:21:12;91979.25;;;1.71;94.30
3250;BME280;1637;42.020;23.992;2023-01-28T04:23:41;91982.22;;;1.62;94.02
3250;BME280;1637;42.020;23.992;2023-01-28T04:26:07;91976.19;;;1.62;93.36
3250;BME280;1637;42.020;23.992;2023-01-28T04:28:34;91975.44;;;1.65;93.36
3250;BME280;1637;42.020;23.992;2023-01-28T04:31:01;91988.28;;;1.70;92.25
3250;BME280;1637;42.020;23.992;2023-01-28T04:33:28;91987.31;;;1.89;92.51
3250;BME280;1637;42.020;23.992;2023-01-28T04:35:55;91988.75;;;1.79;93.34
3250;BME280;1637;42.020;23.992;2023-01-28T04:38:22;91983.00;;;1.70;93.52
3250;BME280;1637;42.020;23.992;2023-01-28T04:40:50;91998.19;;;1.80;90.03
3250;BME280;1637;42.020;23.992;2023-01-28T04:43:18;91998.28;;;1.50;90.69
3250;BME280;1637;42.020;23.992;2023-01-28T04:45:45;91998.97;;;1.84;90.86
3250;BME280;1637;42.020;23.992;2023-01-28T04:48:12;92003.41;;;1.73;93.69
3250;BME280;1637;42.020;23.992;2023-01-28T04:50:39;92005.75;;;1.82;92.09
3250;BME280;1637;42.020;23.992;2023-01-28T04:53:06;92007.88;;;1.65;90.69
3250;BME280;1637;42.020;23.992;2023-01-28T04:55:33;92009.66;;;1.54;93.25
3250;BME280;1637;42.020;23.992;2023-01-28T04:58:01;92015.41;;;1.63;92.90
3250;BME280;1637;42.020;23.992;2023-01-28T05:00:28;92010.72;;;1.50;92.71
3250;BME280;1637;42.020;23.992;2023-01-28T05:02:54;92014.88;;;1.51;92.71
3250;BME280;1637;42.020;23.992;2023-01-28T05:05:21;92015.25;;;1.49;93.25
3250;BME280;1637;42.020;23.992;2023-01-28T05:07:52;92014.00;;;1.36;92.74
3250;BME280;1637;42.020;23.992;2023-01-28T05:10:19;92020.84;;;1.41;92.23
3250;BME280;1637;42.020;23.992;2023-01-28T05:12:46;92029.41;;;1.71;91.31
3250;BME280;1637;42.020;23.992;2023-01-28T05:15:16;92030.88;;;1.65;90.33
3250;BME280;1637;42.020;23.992;2023-01-28T05:17:43;92034.28;;;1.69;91.05
3250;BME280;1637;42.020;23.992;2023-01-28T05:20:12;92003.16;;;1.45;92.23
3250;BME280;1637;42.020;23.992;2023-01-28T05:22:39;92028.00;;;1.40;90.22
3250;BME280;1637;42.020;23.992;2023-01-28T05:25:07;92029.59;;;1.52;90.11
3250;BME280;1637;42.020;23.992;2023-01-28T05:27:34;92041.78;;;1.63;90.13
3250;BME280;1637;42.020;23.992;2023-01-28T05:30:01;92033.84;;;1.60;90.20
3250;BME280;1637;42.020;23.992;2023-01-28T05:32:29;92041.34;;;1.58;91.14
3250;BME280;1637;42.020;23.992;2023-01-28T05:34:56;92040.47;;;1.43;90.98
3250;BME280;1637;42.020;23.992;2023-01-28T05:37:23;92043.16;;;1.50;91.58
3250;BME280;1637;42.020;23.992;2023-01-28T05:39:50;92043.19;;;1.54;91.84
3250;BME280;1637;42.020;23.992;2023-01-28T05:42:16;92048.44;;;1.50;91.36
3250;BME280;1637;42.020;23.992;2023-01-28T05:44:45;91996.34;;;1.03;92.63
3250;BME280;1637;42.020;23.992;2023-01-28T05:47:12;92053.72;;;1.50;92.08
3250;BME280;1637;42.020;23.992;2023-01-28T05:49:40;92047.66;;;1.50;91.89
3250;BME280;1637;42.020;23.992;2023-01-28T05:52:07;92054.50;;;1.54;90.70
3250;BME280;1637;42.020;23.992;2023-01-28T05:54:34;92054.47;;;1.51;91.27
3250;BME280;1637;42.020;23.992;2023-01-28T05:57:00;92055.06;;;1.74;89.80
3250;BME280;1637;42.020;23.992;2023-01-28T05:59:27;92065.47;;;1.97;89.04
3250;BME280;1637;42.020;23.992;2023-01-28T06:01:54;92065.56;;;1.67;89.50
3250;BME280;1637;42.020;23.992;2023-01-28T06:04:21;92065.19;;;1.65;90.55
3250;BME280;1637;42.020;23.992;2023-01-28T06:06:49;92072.00;;;1.69;89.93
3250;BME280;1637;42.020;23.992;2023-01-28T06:09:16;92077.72;;;1.75;91.64
3250;BME280;1637;42.020;23.992;2023-01-28T06:11:43;92076.50;;;1.65;90.48
3250;BME280;1637;42.020;23.992;2023-01-28T06:14:11;92077.84;;;1.89;90.37
3250;BME280;1637;42.020;23.992;2023-01-28T06:16:37;92089.91;;;2.34;90.10
3250;BME280;1637;42.020;23.992;2023-01-28T06:19:04;92084.41;;;2.06;88.53
3250;BME280;1637;42.020;23.992;2023-01-28T06:21:31;92091.97;;;2.08;88.55
3250;BME280;1637;42.020;23.992;2023-01-28T06:23:59;92095.06;;;2.17;89.22
3250;BME280;1637;42.020;23.992;2023-01-28T06:26:26;92100.41;;;2.24;88.87
3250;BME280;1637;42.020;23.992;2023-01-28T06:28:53;92099.28;;;2.25;88.24
3250;BME280;1637;42.020;23.992;2023-01-28T06:31:20;92108.41;;;1.90;88.17
3250;BME280;1637;42.020;23.992;2023-01-28T06:33:46;92105.00;;;1.86;88.43
3250;BME280;1637;42.020;23.992;2023-01-28T06:36:13;92108.84;;;1.96;88.53
3250;BME280;1637;42.020;23.992;2023-01-28T06:38:40;92115.69;;;2.00;88.32
3250;BME280;1637;42.020;23.992;2023-01-28T06:41:08;92114.31;;;1.77;87.91
3250;BME280;1637;42.020;23.992;2023-01-28T06:43:35;92115.44;;;2.16;90.99
3250;BME280;1637;42.020;23.992;2023-01-28T06:46:02;92113.91;;;2.15;89.93
3250;BME280;1637;42.020;23.992;2023-01-28T06:48:29;92122.97;;;2.14;87.94
3250;BME280;1637;42.020;23.992;2023-01-28T06:50:56;92122.59;;;2.16;87.18
3250;BME280;1637;42.020;23.992;2023-01-28T06:53:23;92129.94;;;2.36;86.67
3250;BME280;1637;42.020;23.992;2023-01-28T06:55:50;92098.19;;;1.85;87.07
3250;BME280;1637;42.020;23.992;2023-01-28T06:58:18;92137.59;;;2.04;88.03
3250;BME280;1637;42.020;23.992;2023-01-28T07:00:45;92095.22;;;1.53;90.66
3250;BME280;1637;42.020;23.992;2023-01-28T07:03:12;92133.63;;;1.84;93.72
3250;BME280;1637;42.020;23.992;2023-01-28T07:05:39;92140.44;;;1.85;93.87
3250;BME280;1637;42.020;23.992;2023-01-28T07:08:06;92128.75;;;1.90;95.06
3250;BME280;1637;42.020;23.992;2023-01-28T07:10:33;92150.78;;;2.01;94.07
3250;BME280;1637;42.020;23.992;2023-01-28T07:12:59;92145.50;;;2.01;93.92
3250;BME280;1637;42.020;23.992;2023-01-28T07:15:28;92151.09;;;1.96;94.17
3250;BME280;1637;42.020;23.992;2023-01-28T07:17:55;92160.34;;;2.16;93.55
3250;BME280;1637;42.020;23.992;2023-01-28T07:20:21;92163.81;;;2.24;93.41
3250;BME280;1637;42.020;23.992;2023-01-28T07:22:48;92151.72;;;1.82;94.72
3250;BME280;1637;42.020;23.992;2023-01-28T07:25:15;92191.16;;;2.01;95.68
3250;BME280;1637;42.020;23.992;2023-01-28T07:27:47;92141.28;;;1.96;94.54
3250;BME280;1637;42.020;23.992;2023-01-28T07:30:14;92169.66;;;2.03;93.65
3250;BME280;1637;42.020;23.992;2023-01-28T07:32:43;92172.31;;;2.03;93.41
3250;BME280;1637;42.020;23.992;2023-01-28T07:35:10;92180.25;;;2.47;92.64
3250;BME280;1637;42.020;23.992;2023-01-28T07:37:38;92182.72;;;2.26;92.59
3250;BME280;1637;42.020;23.992;2023-01-28T07:40:06;92138.66;;;1.96;91.90
3250;BME280;1637;42.020;23.992;2023-01-28T07:42:33;92181.44;;;2.13;92.14
3250;BME280;1637;42.020;23.992;2023-01-28T07:45:00;92184.13;;;2.16;93.31
3250;BME280;1637;42.020;23.992;2023-01-28T07:47:27;92179.84;;;2.41;92.87
3250;BME280;1637;42.020;23.992;2023-01-28T07:49:55;92188.03;;;2.33;92.66
3250;BME280;1637;42.020;23.992;2023-01-28T07:52:22;92190.56;;;2.19;93.35
3250;BME280;1637;42.020;23.992;2023-01-28T07:54:49;92252.75;;;2.46;92.64
3250;BME280;1637;42.020;23.992;2023-01-28T07:57:16;92193.31;;;2.33;91.96
3250;BME280;1637;42.020;23.992;2023-01-28T07:59:48;92192.44;;;2.18;91.69
3250;BME280;1637;42.020;23.992;2023-01-28T08:02:16;92200.00;;;2.20;92.46
3250;BME280;1637;42.020;23.992;2023-01-28T08:04:43;92204.00;;;2.44;89.64
3250;BME280;1637;42.020;23.992;2023-01-28T08:07:11;92211.00;;;2.25;90.10
3250;BME280;1637;42.020;23.992;2023-01-28T08:09:38;92193.34;;;1.96;91.55
3250;BME280;1637;42.020;23.992;2023-01-28T08:12:05;92205.75;;;2.29;90.92
3250;BME280;1637;42.020;23.992;2023-01-28T08:14:32;92206.09;;;1.87;91.86
3250;BME280;1637;42.020;23.992;2023-01-28T08:16:59;92208.81;;;1.97;93.29
3250;BME280;1637;42.020;23.992;2023-01-28T08:19:26;92214.09;;;1.97;93.31
3250;BME280;1637;42.020;23.992;2023-01-28T08:21:52;92213.50;;;2.11;93.20
3250;BME280;1637;42.020;23.992;2023-01-28T08:24:21;92213.72;;;1.95;93.80
3250;BME280;1637;42.020;23.992;2023-01-28T08:26:47;92213.75;;;1.99;95.11
3250;BME280;1637;42.020;23.992;2023-01-28T08:29:14;92221.97;;;2.27;93.67
3250;BME280;1637;42.020;23.992;2023-01-28T08:31:41;92220.94;;;2.39;91.93
3250;BME280;1637;42.020;23.992;2023-01-28T08:34:08;92215.34;;;2.44;89.78
3250;BME280;1637;42.020;23.992;2023-01-28T08:36:35;92215.31;;;2.03;89.17
3250;BME280;1637;42.020;23.992;2023-01-28T08:39:02;92215.50;;;2.21;90.09
3250;BME280;1637;42.020;23.992;2023-01-28T08:41:31;92225.31;;;2.21;90.67
3250;BME280;1637;42.020;23.992;2023-01-28T08:43:58;92221.19;;;2.23;90.54
3250;BME280;1637;42.020;23.992;2023-01-28T08:46:25;92230.28;;;2.29;90.03
3250;BME280;1637;42.020;23.992;2023-01-28T08:48:52;92192.69;;;2.43;89.26
3250;BME280;1637;42.020;23.992;2023-01-28T08:51:19;92233.75;;;2.78;88.09
3250;BME280;1637;42.020;23.992;2023-01-28T08:53:46;92227.06;;;2.47;89.54
3250;BME280;1637;42.020;23.992;2023-01-28T08:56:13;92232.38;;;2.47;90.76
3250;BME280;1637;42.020;23.992;2023-01-28T08:58:42;92231.75;;;2.64;91.29
3250;BME280;1637;42.020;23.992;2023-01-28T09:01:09;92237.16;;;2.78;89.42
3250;BME280;1637;42.020;23.992;2023-01-28T09:03:36;92239.13;;;2.85;88.32
3250;BME280;1637;42.020;23.992;2023-01-28T09:06:03;92211.63;;;2.49;90.98
3250;BME280;1637;42.020;23.992;2023-01-28T09:08:30;92238.25;;;2.70;91.54
3250;BME280;1637;42.020;23.992;2023-01-28T09:10:58;92246.97;;;2.78;90.50
3250;BME280;1637;42.020;23.992;2023-01-28T09:13:25;92243.78;;;3.02;89.43
3250;BME280;1637;42.020;23.992;2023-01-28T09:15:54;92254.44;;;2.65;87.99
3250;BME280;1637;42.020;23.992;2023-01-28T09:18:21;92246.00;;;2.52;90.69
3250;BME280;1637;42.020;23.992;2023-01-28T09:20:48;92247.16;;;2.55;90.89
3250;BME280;1637;42.020;23.992;2023-01-28T09:23:15;92250.91;;;2.54;90.33
3250;BME280;1637;42.020;23.992;2023-01-28T09:25:42;92240.44;;;2.64;90.16
3250;BME280;1637;42.020;23.992;2023-01-28T09:28:08;92237.19;;;2.82;90.42
3250;BME280;1637;42.020;23.992;2023-01-28T09:30:35;92245.84;;;2.79;92.24
3250;BME280;1637;42.020;23.992;2023-01-28T09:33:06;92244.03;;;2.86;91.50
3250;BME280;1637;42.020;23.992;2023-01-28T09:35:33;92243.56;;;2.77;91.39
3250;BME280;1637;42.020;23.992;2023-01-28T09:38:01;92240.56;;;2.79;91.21
3250;BME280;1637;42.020;23.992;2023-01-28T09:40:32;92236.19;;;2.97;91.36
3250;BME280;1637;42.020;23.992;2023-01-28T09:43:25;92235.25;;;3.26;91.07
3250;BME280;1637;42.020;23.992;2023-01-28T09:45:58;92248.03;;;3.17;89.98
3250;BME280;1637;42.020;23.992;2023-01-28T09:48:31;92239.78;;;2.74;92.15
3250;BME280;1637;42.020;23.992;2023-01-28T09:51:02;92239.50;;;2.87;93.52
3250;BME280;1637;42.020;23.992;2023-01-28T09:53:37;92242.50;;;2.41;94.00
3250;BME280;1637;42.020;23.992;2023-01-28T09:56:10;92244.25;;;2.70;94.78
3250;BME280;1637;42.020;23.992;2023-01-28T09:58:40;92241.09;;;2.54;95.30
3250;BME280;1637;42.020;23.992;2023-01-28T10:01:24;92233.09;;;2.06;97.22
3250;BME280;1637;42.020;23.992;2023-01-28T10:04:03;92224.94;;;2.22;98.23
3250;BME280;1637;42.020;23.992;2023-01-28T10:06:49;92235.00;;;2.47;98.73
3250;BME280;1637;42.020;23.992;2023-01-28T10:09:26;92227.22;;;2.64;96.88
3250;BME280;1637;42.020;23.992;2023-01-28T10:12:10;92235.47;;;3.03;94.21
3250;BME280;1637;42.020;23.992;2023-01-28T10:14:52;92243.34;;;2.96;92.71
3250;BME280;1637;42.020;23.992;2023-01-28T10:17:25;92223.47;;;2.65;91.50
3250;BME280;1637;42.020;23.992;2023-01-28T10:19:58;92240.88;;;2.70;95.26
3250;BME280;1637;42.020;23.992;2023-01-28T10:22:28;92205.72;;;2.66;94.80
3250;BME280;1637;42.020;23.992;2023-01-28T10:24:57;92210.97;;;2.62;94.56
3250;BME280;1637;42.020;23.992;2023-01-28T10:27:29;92215.53;;;2.65;93.54
3250;BME280;1637;42.020;23.992;2023-01-28T10:29:58;92221.91;;;3.08;92.02
3250;BME280;1637;42.020;23.992;2023-01-28T10:32:28;92270.25;;;3.53;92.03
3250;BME280;1637;42.020;23.992;2023-01-28T10:34:57;92244.06;;;3.41;90.74
3250;BME280;1637;42.020;23.992;2023-01-28T10:37:26;92243.75;;;3.50;89.62
3250;BME280;1637;42.020;23.992;2023-01-28T10:39:56;92253.44;;;3.35;89.55
3250;BME280;1637;42.020;23.992;2023-01-28T10:42:27;92245.09;;;3.26;90.15
3250;BME280;1637;42.020;23.992;2023-01-28T10:44:56;92245.75;;;3.16;90.66
3250;BME280;1637;42.020;23.992;2023-01-28T10:47:29;92252.94;;;3.15;90.21
3250;BME280;1637;42.020;23.992;2023-01-28T10:49:59;92248.38;;;3.08;88.39
3250;BME280;1637;42.020;23.992;2023-01-28T10:52:26;92249.91;;;3.09;90.29
3250;BME280;1637;42.020;23.992;2023-01-28T10:55:00;92244.66;;;2.72;88.86
3250;BME280;1637;42.020;23.992;2023-01-28T10:57:28;92267.03;;;2.82;90.24
3250;BME280;1637;42.020;23.992;2023-01-28T10:59:55;92249.81;;;2.99;90.77
3250;BME280;1637;42.020;23.992;2023-01-28T11:02:28;92254.44;;;3.09;89.89
3250;BME280;1637;42.020;23.992;2023-01-28T11:05:04;92246.38;;;2.95;86.09
3250;BME280;1637;42.020;23.992;2023-01-28T11:07:31;92249.06;;;3.02;88.68
3250;BME280;1637;42.020;23.992;2023-01-28T11:09:58;92253.38;;;3.21;88.01
3250;BME280;1637;42.020;23.992;2023-01-28T11:12:27;92251.03;;;3.12;87.96
3250;BME280;1637;42.020;23.992;2023-01-28T11:14:55;92258.03;;;3.41;88.06
3250;BME280;1637;42.020;23.992;2023-01-28T11:17:23;92252.03;;;3.48;87.46
3250;BME280;1637;42.020;23.992;2023-01-28T11:19:52;92257.50;;;3.73;86.28
3250;BME280;1637;42.020;23.992;2023-01-28T11:22:25;92256.84;;;4.01;85.88
3250;BME280;1637;42.020;23.992;2023-01-28T11:24:55;92257.16;;;3.85;84.66
3250;BME280;1637;42.020;23.992;2023-01-28T11:27:26;92225.06;;;3.28;87.88
3250;BME280;1637;42.020;23.992;2023-01-28T11:29:56;92260.44;;;3.61;86.97
3250;BME280;1637;42.020;23.992;2023-01-28T11:32:27;92255.41;;;3.41;86.36
3250;BME280;1637;42.020;23.992;2023-01-28T11:34:55;92196.03;;;2.84;89.58
3250;BME280;1637;42.020;23.992;2023-01-28T11:37:26;92253.97;;;3.51;85.84
3250;BME280;1637;42.020;23.992;2023-01-28T11:40:01;92254.44;;;3.71;87.76
3250;BME280;1637;42.020;23.992;2023-01-28T11:42:29;92259.06;;;3.85;86.80
3250;BME280;1637;42.020;23.992;2023-01-28T11:44:56;92259.38;;;3.76;86.23
3250;BME280;1637;42.020;23.992;2023-01-28T11:47:38;92260.50;;;3.71;86.42
3250;BME280;1637;42.020;23.992;2023-01-28T11:50:21;92255.25;;;3.82;87.25
3250;BME280;1637;42.020;23.992;2023-01-28T11:52:59;92257.00;;;3.57;84.25
3250;BME280;1637;42.020;23.992;2023-01-28T11:55:40;92253.09;;;3.36;86.39
3250;BME280;1637;42.020;23.992;2023-01-28T11:58:19;92252.34;;;3.36;85.77
3250;BME280;1637;42.020;23.992;2023-01-28T12:00:53;92261.38;;;3.28;84.89
3250;BME280;1637;42.020;23.992;2023-01-28T12:03:31;92260.38;;;3.54;85.56
3250;BME280;1637;42.020;23.992;2023-01-28T12:06:13;92252.06;;;3.52;86.54
3250;BME280;1637;42.020;23.992;2023-01-28T12:08:49;92258.09;;;3.49;91.95
3250;BME280;1637;42.020;23.992;2023-01-28T12:11:28;92250.91;;;3.49;91.50
3250;BME280;1637;42.020;23.992;2023-01-28T12:14:21;92253.94;;;3.48;86.82
3250;BME280;1637;42.020;23.992;2023-01-28T12:17:00;92258.75;;;3.31;87.63
3250;BME280;1637;42.020;23.992;2023-01-28T12:19:44;92248.69;;;3.58;85.98
3250;BME280;1637;42.020;23.992;2023-01-28T12:22:23;92257.59;;;3.94;84.51
3250;BME280;1637;42.020;23.992;2023-01-28T12:25:15;92258.78;;;4.07;83.77
3250;BME280;1637;42.020;23.992;2023-01-28T12:27:51;92253.81;;;3.99;80.25
3250;BME280;1637;42.020;23.992;2023-01-28T12:30:32;92261.53;;;3.53;82.34
3250;BME280;1637;42.020;23.992;2023-01-28T12:35:58;92254.50;;;3.20;82.06
3250;BME280;1637;42.020;23.992;2023-01-28T12:38:40;92265.06;;;3.20;83.30
3250;BME280;1637;42.020;23.992;2023-01-28T12:41:13;92256.53;;;2.93;83.79
3250;BME280;1637;42.020;23.992;2023-01-28T12:43:52;92166.69;;;2.52;83.72
3250;BME280;1637;42.020;23.992;2023-01-28T12:46:28;92269.19;;;3.14;83.10
3250;BME280;1637;42.020;23.992;2023-01-28T12:49:01;92268.25;;;2.88;81.01
3250;BME280;1637;42.020;23.992;2023-01-28T12:51:33;92274.25;;;2.85;82.42
3250;BME280;1637;42.020;23.992;2023-01-28T12:54:03;92278.47;;;2.90;81.14
3250;BME280;1637;42.020;23.992;2023-01-28T12:56:35;92273.22;;;2.97;81.58
3250;BME280;1637;42.020;23.992;2023-01-28T12:59:11;92275.75;;;3.34;82.13
3250;BME280;1637;42.020;23.992;2023-01-28T13:01:41;92280.91;;;3.16;81.01
3250;BME280;1637;42.020;23.992;2023-01-28T13:04:15;92276.19;;;2.92;80.47
3250;BME280;1637;42.020;23.992;2023-01-28T13:06:47;92288.28;;;2.89;80.14
3250;BME280;1637;42.020;23.992;2023-01-28T13:09:18;92286.09;;;3.02;81.44
3250;BME280;1637;42.020;23.992;2023-01-28T13:11:48;92294.94;;;2.76;81.01
3250;BME280;1637;42.020;23.992;2023-01-28T13:14:17;92296.69;;;2.61;82.62
3250;BME280;1637;42.020;23.992;2023-01-28T13:16:46;92294.03;;;2.61;81.93
3250;BME280;1637;42.020;23.992;2023-01-28T13:19:23;92295.22;;;2.64;82.25
3250;BME280;1637;42.020;23.992;2023-01-28T13:21:50;92295.50;;;2.55;82.93
3250;BME280;1637;42.020;23.992;2023-01-28T13:24:30;92274.81;;;2.27;84.43
3250;BME280;1637;42.020;23.992;2023-01-28T13:27:09;92303.06;;;2.57;84.51
3250;BME280;1637;42.020;23.992;2023-01-28T13:29:37;92308.19;;;2.42;86.19
3250;BME280;1637;42.020;23.992;2023-01-28T13:32:26;92311.44;;;2.62;85.10
3250;BME280;1637;42.020;23.992;2023-01-28T13:34:59;92313.53;;;2.46;86.16
3250;BME280;1637;42.020;23.992;2023-01-28T13:37:29;92316.50;;;2.41;86.61
3250;BME280;1637;42.020;23.992;2023-01-28T13:40:01;92322.84;;;2.36;88.25
3250;BME280;1637;42.020;23.992;2023-01-28T13:42:30;92323.06;;;2.21;89.25
3250;BME280;1637;42.020;23.992;2023-01-28T13:45:20;92327.78;;;2.08;90.20